sensor_id;sensor_type;location;lat;lon;timestamp;temperature;humidity
4103;DHT22;2065;49.790;9.620;2022-09-01T00:01:40;23.00;44.90
4103;DHT22;2065;49.790;9.620;2022-09-01T00:04:09;23.00;44.90
4103;DHT22;2065;49.790;9.620;2022-09-01T00:06:38;22.90;44.80
4103;DHT22;2065;49.790;9.620;2022-09-01T00:09:08;22.80;45.30
4103;DHT22;2065;49.790;9.620;2022-09-01T00:11:35;22.90;45.20
4103;DHT22;2065;49.790;9.620;2022-09-01T00:14:05;22.80;45.20
4103;DHT22;2065;49.790;9.620;2022-09-01T00:16:33;22.40;45.80
4103;DHT22;2065;49.790;9.620;2022-09-01T00:19:00;21.90;46.60
4103;DHT22;2065;49.790;9.620;2022-09-01T00:21:39;21.70;47.20
4103;DHT22;2065;49.790;9.620;2022-09-01T00:24:07;21.40;47.80
4103;DHT22;2065;49.790;9.620;2022-09-01T00:26:34;21.30;48.00
4103;DHT22;2065;49.790;9.620;2022-09-01T00:29:03;21.60;47.50
4103;DHT22;2065;49.790;9.620;2022-09-01T00:31:31;21.90;47.00
4103;DHT22;2065;49.790;9.620;2022-09-01T00:33:58;22.10;46.50
4103;DHT22;2065;49.790;9.620;2022-09-01T00:36:26;22.20;46.30
4103;DHT22;2065;49.790;9.620;2022-09-01T00:38:53;22.30;46.00
4103;DHT22;2065;49.790;9.620;2022-09-01T00:41:22;22.30;45.80
4103;DHT22;2065;49.790;9.620;2022-09-01T00:43:51;22.40;45.90
4103;DHT22;2065;49.790;9.620;2022-09-01T00:46:22;22.40;45.90
4103;DHT22;2065;49.790;9.620;2022-09-01T00:48:53;22.40;45.70
4103;DHT22;2065;49.790;9.620;2022-09-01T00:51:22;22.30;45.30
4103;DHT22;2065;49.790;9.620;2022-09-01T00:53:49;22.30;45.70
4103;DHT22;2065;49.790;9.620;2022-09-01T00:56:17;22.30;46.00
4103;DHT22;2065;49.790;9.620;2022-09-01T00:58:44;22.30;46.40
4103;DHT22;2065;49.790;9.620;2022-09-01T01:01:11;22.30;46.40
4103;DHT22;2065;49.790;9.620;2022-09-01T01:03:40;22.20;46.40
4103;DHT22;2065;49.790;9.620;2022-09-01T01:06:10;22.30;46.40
4103;DHT22;2065;49.790;9.620;2022-09-01T01:08:41;22.20;46.30
4103;DHT22;2065;49.790;9.620;2022-09-01T01:11:21;22.20;46.40
4103;DHT22;2065;49.790;9.620;2022-09-01T01:13:51;22.20;46.50
4103;DHT22;2065;49.790;9.620;2022-09-01T01:16:20;22.20;46.40
4103;DHT22;2065;49.790;9.620;2022-09-01T01:18:48;22.20;46.30
4103;DHT22;2065;49.790;9.620;2022-09-01T01:21:19;22.20;46.30
4103;DHT22;2065;49.790;9.620;2022-09-01T01:24:14;22.20;46.50
4103;DHT22;2065;49.790;9.620;2022-09-01T01:26:43;22.10;47.00
4103;DHT22;2065;49.790;9.620;2022-09-01T01:29:11;21.90;47.50
4103;DHT22;2065;49.790;9.620;2022-09-01T01:31:38;21.30;48.80
4103;DHT22;2065;49.790;9.620;2022-09-01T01:34:05;21.20;49.20
4103;DHT22;2065;49.790;9.620;2022-09-01T01:36:35;21.40;48.70
4103;DHT22;2065;49.790;9.620;2022-09-01T01:39:09;21.50;48.50
4103;DHT22;2065;49.790;9.620;2022-09-01T01:41:40;21.40;48.70
4103;DHT22;2065;49.790;9.620;2022-09-01T01:44:12;21.40;48.10
4103;DHT22;2065;49.790;9.620;2022-09-01T01:46:42;21.50;47.70
4103;DHT22;2065;49.790;9.620;2022-09-01T01:49:09;21.50;47.90
4103;DHT22;2065;49.790;9.620;2022-09-01T01:51:39;21.50;47.50
4103;DHT22;2065;49.790;9.620;2022-09-01T01:54:06;21.50;47.30
4103;DHT22;2065;49.790;9.620;2022-09-01T01:56:33;21.50;48.00
4103;DHT22;2065;49.790;9.620;2022-09-01T01:59:05;21.50;47.90
4103;DHT22;2065;49.790;9.620;2022-09-01T02:01:32;21.50;47.70
4103;DHT22;2065;49.790;9.620;2022-09-01T02:03:59;21.50;48.10
4103;DHT22;2065;49.790;9.620;2022-09-01T02:06:31;21.50;47.90
4103;DHT22;2065;49.790;9.620;2022-09-01T02:08:59;21.50;48.00
4103;DHT22;2065;49.790;9.620;2022-09-01T02:11:30;21.50;47.80
4103;DHT22;2065;49.790;9.620;2022-09-01T02:13:58;21.50;47.90
4103;DHT22;2065;49.790;9.620;2022-09-01T02:16:29;21.50;47.80
4103;DHT22;2065;49.790;9.620;2022-09-01T02:18:58;21.40;48.00
4103;DHT22;2065;49.790;9.620;2022-09-01T02:21:25;21.40;47.80
4103;DHT22;2065;49.790;9.620;2022-09-01T02:23:55;21.40;47.80
4103;DHT22;2065;49.790;9.620;2022-09-01T02:26:27;21.30;47.80
4103;DHT22;2065;49.790;9.620;2022-09-01T02:28:57;21.30;47.60
4103;DHT22;2065;49.790;9.620;2022-09-01T02:31:31;21.30;47.70
4103;DHT22;2065;49.790;9.620;2022-09-01T02:34:00;21.30;47.70
4103;DHT22;2065;49.790;9.620;2022-09-01T02:36:28;21.30;47.80
4103;DHT22;2065;49.790;9.620;2022-09-01T02:38:57;21.30;48.00
4103;DHT22;2065;49.790;9.620;2022-09-01T02:41:24;21.30;48.20
4103;DHT22;2065;49.790;9.620;2022-09-01T02:43:53;21.20;48.50
4103;DHT22;2065;49.790;9.620;2022-09-01T02:46:22;21.20;48.70
4103;DHT22;2065;49.790;9.620;2022-09-01T02:48:51;21.20;49.20
4103;DHT22;2065;49.790;9.620;2022-09-01T02:51:21;21.20;49.40
4103;DHT22;2065;49.790;9.620;2022-09-01T02:53:51;21.20;49.30
4103;DHT22;2065;49.790;9.620;2022-09-01T02:56:19;21.20;49.50
4103;DHT22;2065;49.790;9.620;2022-09-01T02:58:48;21.10;49.60
4103;DHT22;2065;49.790;9.620;2022-09-01T03:01:18;21.10;49.70
4103;DHT22;2065;49.790;9.620;2022-09-01T03:03:50;21.10;49.80
4103;DHT22;2065;49.790;9.620;2022-09-01T03:06:19;21.10;49.50
4103;DHT22;2065;49.790;9.620;2022-09-01T03:08:49;21.00;49.20
4103;DHT22;2065;49.790;9.620;2022-09-01T03:11:17;21.00;49.00
4103;DHT22;2065;49.790;9.620;2022-09-01T03:13:44;21.00;48.70
4103;DHT22;2065;49.790;9.620;2022-09-01T03:16:12;21.00;48.60
4103;DHT22;2065;49.790;9.620;2022-09-01T03:18:39;20.90;48.60
4103;DHT22;2065;49.790;9.620;2022-09-01T03:21:09;20.90;48.60
4103;DHT22;2065;49.790;9.620;2022-09-01T03:23:42;20.90;48.30
4103;DHT22;2065;49.790;9.620;2022-09-01T03:26:10;20.80;47.80
4103;DHT22;2065;49.790;9.620;2022-09-01T03:28:37;20.70;48.00
4103;DHT22;2065;49.790;9.620;2022-09-01T03:31:05;20.70;48.60
4103;DHT22;2065;49.790;9.620;2022-09-01T03:33:34;20.70;48.70
4103;DHT22;2065;49.790;9.620;2022-09-01T03:36:03;20.70;48.70
4103;DHT22;2065;49.790;9.620;2022-09-01T03:38:31;20.70;48.80
4103;DHT22;2065;49.790;9.620;2022-09-01T03:41:02;20.70;48.90
4103;DHT22;2065;49.790;9.620;2022-09-01T03:43:32;20.70;48.90
4103;DHT22;2065;49.790;9.620;2022-09-01T03:45:59;20.70;49.10
4103;DHT22;2065;49.790;9.620;2022-09-01T03:48:28;20.60;49.40
4103;DHT22;2065;49.790;9.620;2022-09-01T03:50:58;20.60;49.50
4103;DHT22;2065;49.790;9.620;2022-09-01T03:53:29;20.60;49.60
4103;DHT22;2065;49.790;9.620;2022-09-01T03:55:57;20.60;49.50
4103;DHT22;2065;49.790;9.620;2022-09-01T03:58:25;20.50;48.80
4103;DHT22;2065;49.790;9.620;2022-09-01T04:00:54;20.50;49.30
4103;DHT22;2065;49.790;9.620;2022-09-01T04:03:23;20.40;49.30
4103;DHT22;2065;49.790;9.620;2022-09-01T04:05:52;20.40;49.30
4103;DHT22;2065;49.790;9.620;2022-09-01T04:08:21;20.40;49.30
4103;DHT22;2065;49.790;9.620;2022-09-01T04:11:00;20.30;49.50
4103;DHT22;2065;49.790;9.620;2022-09-01T04:13:34;20.30;49.60
4103;DHT22;2065;49.790;9.620;2022-09-01T04:16:02;20.30;49.50
4103;DHT22;2065;49.790;9.620;2022-09-01T04:18:35;20.30;49.30
4103;DHT22;2065;49.790;9.620;2022-09-01T04:21:02;20.30;49.20
4103;DHT22;2065;49.790;9.620;2022-09-01T04:23:34;20.20;48.90
4103;DHT22;2065;49.790;9.620;2022-09-01T04:26:10;20.20;49.40
4103;DHT22;2065;49.790;9.620;2022-09-01T04:28:41;20.10;49.40
4103;DHT22;2065;49.790;9.620;2022-09-01T04:31:11;20.20;49.50
4103;DHT22;2065;49.790;9.620;2022-09-01T04:33:44;20.20;49.30
4103;DHT22;2065;49.790;9.620;2022-09-01T04:36:15;20.10;49.40
4103;DHT22;2065;49.790;9.620;2022-09-01T04:38:45;20.10;49.50
4103;DHT22;2065;49.790;9.620;2022-09-01T04:41:14;20.10;49.50
4103;DHT22;2065;49.790;9.620;2022-09-01T04:43:42;20.10;49.90
4103;DHT22;2065;49.790;9.620;2022-09-01T04:46:09;20.10;50.00
4103;DHT22;2065;49.790;9.620;2022-09-01T04:48:39;20.10;50.60
4103;DHT22;2065;49.790;9.620;2022-09-01T04:51:07;20.10;50.50
4103;DHT22;2065;49.790;9.620;2022-09-01T04:53:49;20.10;50.50
4103;DHT22;2065;49.790;9.620;2022-09-01T04:56:19;20.10;50.50
4103;DHT22;2065;49.790;9.620;2022-09-01T04:58:59;20.10;50.70
4103;DHT22;2065;49.790;9.620;2022-09-01T05:01:26;20.10;51.00
4103;DHT22;2065;49.790;9.620;2022-09-01T05:03:53;20.10;50.90
4103;DHT22;2065;49.790;9.620;2022-09-01T05:06:34;20.10;50.80
4103;DHT22;2065;49.790;9.620;2022-09-01T05:09:04;20.10;50.70
4103;DHT22;2065;49.790;9.620;2022-09-01T05:11:48;20.10;50.60
4103;DHT22;2065;49.790;9.620;2022-09-01T05:14:29;20.10;50.40
4103;DHT22;2065;49.790;9.620;2022-09-01T05:16:57;20.10;50.40
4103;DHT22;2065;49.790;9.620;2022-09-01T05:19:27;20.00;50.60
4103;DHT22;2065;49.790;9.620;2022-09-01T05:21:57;20.10;50.80
4103;DHT22;2065;49.790;9.620;2022-09-01T05:24:25;20.10;51.30
4103;DHT22;2065;49.790;9.620;2022-09-01T05:26:58;20.10;51.20
4103;DHT22;2065;49.790;9.620;2022-09-01T05:29:26;20.10;51.50
4103;DHT22;2065;49.790;9.620;2022-09-01T05:31:55;20.10;51.50
4103;DHT22;2065;49.790;9.620;2022-09-01T05:34:22;20.10;51.40
4103;DHT22;2065;49.790;9.620;2022-09-01T05:36:53;20.10;51.20
4103;DHT22;2065;49.790;9.620;2022-09-01T05:39:22;20.20;51.20
4103;DHT22;2065;49.790;9.620;2022-09-01T05:41:50;20.10;51.40
4103;DHT22;2065;49.790;9.620;2022-09-01T05:44:20;20.10;51.30
4103;DHT22;2065;49.790;9.620;2022-09-01T05:46:49;20.10;51.30
4103;DHT22;2065;49.790;9.620;2022-09-01T05:49:18;20.20;51.50
4103;DHT22;2065;49.790;9.620;2022-09-01T05:51:49;20.20;51.40
4103;DHT22;2065;49.790;9.620;2022-09-01T05:54:20;20.20;51.40
4103;DHT22;2065;49.790;9.620;2022-09-01T05:56:48;20.20;51.50
4103;DHT22;2065;49.790;9.620;2022-09-01T05:59:21;20.20;51.60
4103;DHT22;2065;49.790;9.620;2022-09-01T06:01:49;20.20;51.70
4103;DHT22;2065;49.790;9.620;2022-09-01T06:04:17;20.20;51.80
4103;DHT22;2065;49.790;9.620;2022-09-01T06:06:47;20.30;51.90
4103;DHT22;2065;49.790;9.620;2022-09-01T06:09:17;20.30;51.90
4103;DHT22;2065;49.790;9.620;2022-09-01T06:11:45;20.30;51.90
4103;DHT22;2065;49.790;9.620;2022-09-01T06:14:13;20.30;52.10
4103;DHT22;2065;49.790;9.620;2022-09-01T06:16:44;20.40;52.40
4103;DHT22;2065;49.790;9.620;2022-09-01T06:19:13;20.40;52.70
4103;DHT22;2065;49.790;9.620;2022-09-01T06:21:44;20.30;53.40
4103;DHT22;2065;49.790;9.620;2022-09-01T06:24:12;20.40;53.80
4103;DHT22;2065;49.790;9.620;2022-09-01T06:26:40;20.40;53.60
4103;DHT22;2065;49.790;9.620;2022-09-01T06:29:09;20.60;53.20
4103;DHT22;2065;49.790;9.620;2022-09-01T06:31:48;20.60;52.40
4103;DHT22;2065;49.790;9.620;2022-09-01T06:34:18;20.60;52.30
4103;DHT22;2065;49.790;9.620;2022-09-01T06:36:47;20.70;52.60
4103;DHT22;2065;49.790;9.620;2022-09-01T06:39:17;20.70;52.10
4103;DHT22;2065;49.790;9.620;2022-09-01T06:41:48;20.70;53.10
4103;DHT22;2065;49.790;9.620;2022-09-01T06:44:18;20.80;52.40
4103;DHT22;2065;49.790;9.620;2022-09-01T06:46:53;20.90;52.00
4103;DHT22;2065;49.790;9.620;2022-09-01T06:49:20;21.00;52.10
4103;DHT22;2065;49.790;9.620;2022-09-01T06:51:54;21.10;52.10
4103;DHT22;2065;49.790;9.620;2022-09-01T06:54:22;21.20;52.00
4103;DHT22;2065;49.790;9.620;2022-09-01T06:56:50;21.20;51.80
4103;DHT22;2065;49.790;9.620;2022-09-01T06:59:19;21.20;51.50
4103;DHT22;2065;49.790;9.620;2022-09-01T07:01:48;21.10;51.60
4103;DHT22;2065;49.790;9.620;2022-09-01T07:04:19;21.10;51.60
4103;DHT22;2065;49.790;9.620;2022-09-01T07:06:52;21.20;51.70
4103;DHT22;2065;49.790;9.620;2022-09-01T07:09:42;21.20;52.10
4103;DHT22;2065;49.790;9.620;2022-09-01T07:12:22;21.30;52.00
4103;DHT22;2065;49.790;9.620;2022-09-01T07:14:50;21.30;51.80
4103;DHT22;2065;49.790;9.620;2022-09-01T07:17:19;21.40;51.40
4103;DHT22;2065;49.790;9.620;2022-09-01T07:19:48;21.50;51.70
4103;DHT22;2065;49.790;9.620;2022-09-01T07:22:15;21.60;51.40
4103;DHT22;2065;49.790;9.620;2022-09-01T07:24:46;21.60;51.40
4103;DHT22;2065;49.790;9.620;2022-09-01T07:27:33;21.70;51.20
4103;DHT22;2065;49.790;9.620;2022-09-01T07:30:00;21.80;51.40
4103;DHT22;2065;49.790;9.620;2022-09-01T07:32:28;21.90;51.20
4103;DHT22;2065;49.790;9.620;2022-09-01T07:34:59;22.00;51.10
4103;DHT22;2065;49.790;9.620;2022-09-01T07:37:27;22.00;51.20
4103;DHT22;2065;49.790;9.620;2022-09-01T07:39:54;22.20;50.60
4103;DHT22;2065;49.790;9.620;2022-09-01T07:42:41;22.20;50.80
4103;DHT22;2065;49.790;9.620;2022-09-01T07:45:48;22.30;50.70
4103;DHT22;2065;49.790;9.620;2022-09-01T07:48:17;22.40;49.50
4103;DHT22;2065;49.790;9.620;2022-09-01T07:50:51;22.50;49.80
4103;DHT22;2065;49.790;9.620;2022-09-01T07:53:21;22.50;49.50
4103;DHT22;2065;49.790;9.620;2022-09-01T07:55:49;22.60;48.70
4103;DHT22;2065;49.790;9.620;2022-09-01T07:58:18;22.70;48.60
4103;DHT22;2065;49.790;9.620;2022-09-01T08:00:47;22.90;48.50
4103;DHT22;2065;49.790;9.620;2022-09-01T08:03:17;22.90;47.90
4103;DHT22;2065;49.790;9.620;2022-09-01T08:05:44;23.00;48.00
4103;DHT22;2065;49.790;9.620;2022-09-01T08:08:13;23.10;47.80
4103;DHT22;2065;49.790;9.620;2022-09-01T08:10:41;23.40;47.80
4103;DHT22;2065;49.790;9.620;2022-09-01T08:13:10;23.60;47.40
4103;DHT22;2065;49.790;9.620;2022-09-01T08:15:38;23.50;46.40
4103;DHT22;2065;49.790;9.620;2022-09-01T08:18:06;23.30;47.10
4103;DHT22;2065;49.790;9.620;2022-09-01T08:20:37;23.20;47.60
4103;DHT22;2065;49.790;9.620;2022-09-01T08:23:23;23.20;47.30
4103;DHT22;2065;49.790;9.620;2022-09-01T08:25:52;23.40;47.00
4103;DHT22;2065;49.790;9.620;2022-09-01T08:28:20;23.70;47.10
4103;DHT22;2065;49.790;9.620;2022-09-01T08:30:47;23.80;46.20
4103;DHT22;2065;49.790;9.620;2022-09-01T08:33:15;24.00;46.40
4103;DHT22;2065;49.790;9.620;2022-09-01T08:35:46;24.30;46.10
4103;DHT22;2065;49.790;9.620;2022-09-01T08:38:15;24.60;45.40
4103;DHT22;2065;49.790;9.620;2022-09-01T08:40:50;24.80;44.90
4103;DHT22;2065;49.790;9.620;2022-09-01T08:43:24;25.00;44.40
4103;DHT22;2065;49.790;9.620;2022-09-01T08:46:00;25.10;44.20
4103;DHT22;2065;49.790;9.620;2022-09-01T08:48:34;25.10;43.20
4103;DHT22;2065;49.790;9.620;2022-09-01T08:51:10;25.00;43.60
4103;DHT22;2065;49.790;9.620;2022-09-01T08:53:59;25.00;43.80
4103;DHT22;2065;49.790;9.620;2022-09-01T08:56:28;25.10;43.70
4103;DHT22;2065;49.790;9.620;2022-09-01T08:58:57;24.90;43.50
4103;DHT22;2065;49.790;9.620;2022-09-01T09:01:37;24.80;43.90
4103;DHT22;2065;49.790;9.620;2022-09-01T09:04:15;24.80;44.30
4103;DHT22;2065;49.790;9.620;2022-09-01T09:06:49;24.80;43.50
4103;DHT22;2065;49.790;9.620;2022-09-01T09:09:20;24.70;43.90
4103;DHT22;2065;49.790;9.620;2022-09-01T09:12:10;24.80;43.90
4103;DHT22;2065;49.790;9.620;2022-09-01T09:14:48;24.80;43.00
4103;DHT22;2065;49.790;9.620;2022-09-01T09:17:20;25.00;43.80
4103;DHT22;2065;49.790;9.620;2022-09-01T09:19:48;25.30;42.80
4103;DHT22;2065;49.790;9.620;2022-09-01T09:22:17;25.50;41.90
4103;DHT22;2065;49.790;9.620;2022-09-01T09:24:49;25.30;41.60
4103;DHT22;2065;49.790;9.620;2022-09-01T09:27:19;25.50;42.30
4103;DHT22;2065;49.790;9.620;2022-09-01T09:29:49;25.70;41.20
4103;DHT22;2065;49.790;9.620;2022-09-01T09:32:17;25.80;40.90
4103;DHT22;2065;49.790;9.620;2022-09-01T09:34:44;26.00;41.00
4103;DHT22;2065;49.790;9.620;2022-09-01T09:37:24;26.10;39.50
4103;DHT22;2065;49.790;9.620;2022-09-01T09:40:07;26.10;39.70
4103;DHT22;2065;49.790;9.620;2022-09-01T09:42:36;26.40;39.60
4103;DHT22;2065;49.790;9.620;2022-09-01T09:45:09;26.30;39.70
4103;DHT22;2065;49.790;9.620;2022-09-01T09:47:40;26.10;39.10
4103;DHT22;2065;49.790;9.620;2022-09-01T09:50:19;26.10;38.80
4103;DHT22;2065;49.790;9.620;2022-09-01T09:52:47;26.00;39.40
4103;DHT22;2065;49.790;9.620;2022-09-01T09:55:24;26.30;39.20
4103;DHT22;2065;49.790;9.620;2022-09-01T09:57:55;26.50;38.10
4103;DHT22;2065;49.790;9.620;2022-09-01T10:00:25;26.70;37.40
4103;DHT22;2065;49.790;9.620;2022-09-01T10:02:55;26.80;37.60
4103;DHT22;2065;49.790;9.620;2022-09-01T10:05:28;27.10;37.20
4103;DHT22;2065;49.790;9.620;2022-09-01T10:07:57;27.40;35.90
4103;DHT22;2065;49.790;9.620;2022-09-01T10:10:28;27.60;36.00
4103;DHT22;2065;49.790;9.620;2022-09-01T10:12:58;27.60;35.00
4103;DHT22;2065;49.790;9.620;2022-09-01T10:15:28;27.70;34.70
4103;DHT22;2065;49.790;9.620;2022-09-01T10:18:01;27.70;34.30
4103;DHT22;2065;49.790;9.620;2022-09-01T10:20:30;27.80;33.20
4103;DHT22;2065;49.790;9.620;2022-09-01T10:23:00;27.70;34.00
4103;DHT22;2065;49.790;9.620;2022-09-01T10:25:29;27.50;34.10
4103;DHT22;2065;49.790;9.620;2022-09-01T10:28:08;27.50;34.80
4103;DHT22;2065;49.790;9.620;2022-09-01T10:30:38;27.70;34.00
4103;DHT22;2065;49.790;9.620;2022-09-01T10:33:08;27.60;34.20
4103;DHT22;2065;49.790;9.620;2022-09-01T10:35:39;27.70;34.80
4103;DHT22;2065;49.790;9.620;2022-09-01T10:38:09;27.50;34.90
4103;DHT22;2065;49.790;9.620;2022-09-01T10:40:39;27.80;33.70
4103;DHT22;2065;49.790;9.620;2022-09-01T10:43:32;27.90;33.40
4103;DHT22;2065;49.790;9.620;2022-09-01T10:46:28;27.90;34.00
4103;DHT22;2065;49.790;9.620;2022-09-01T10:49:19;28.10;34.10
4103;DHT22;2065;49.790;9.620;2022-09-01T10:51:47;28.40;32.70
4103;DHT22;2065;49.790;9.620;2022-09-01T10:57:34;28.20;32.10
4103;DHT22;2065;49.790;9.620;2022-09-01T11:06:41;29.00;30.90
4103;DHT22;2065;49.790;9.620;2022-09-01T11:09:21;29.30;30.30
4103;DHT22;2065;49.790;9.620;2022-09-01T11:12:07;29.60;30.20
4103;DHT22;2065;49.790;9.620;2022-09-01T11:14:47;29.70;29.60
4103;DHT22;2065;49.790;9.620;2022-09-01T11:17:18;29.80;30.20
4103;DHT22;2065;49.790;9.620;2022-09-01T11:19:46;29.70;29.60
4103;DHT22;2065;49.790;9.620;2022-09-01T11:22:26;29.30;30.00
4103;DHT22;2065;49.790;9.620;2022-09-01T11:28:03;29.00;30.00
4103;DHT22;2065;49.790;9.620;2022-09-01T11:30:41;29.10;30.30
4103;DHT22;2065;49.790;9.620;2022-09-01T11:33:49;29.20;30.50
4103;DHT22;2065;49.790;9.620;2022-09-01T11:36:26;29.10;30.40
4103;DHT22;2065;49.790;9.620;2022-09-01T11:39:03;29.00;29.80
4103;DHT22;2065;49.790;9.620;2022-09-01T11:41:34;28.90;30.00
4103;DHT22;2065;49.790;9.620;2022-09-01T11:44:10;28.90;30.00
4103;DHT22;2065;49.790;9.620;2022-09-01T11:46:38;28.80;31.00
4103;DHT22;2065;49.790;9.620;2022-09-01T11:49:22;28.60;30.40
4103;DHT22;2065;49.790;9.620;2022-09-01T11:51:51;28.70;31.30
4103;DHT22;2065;49.790;9.620;2022-09-01T11:54:19;29.00;30.30
4103;DHT22;2065;49.790;9.620;2022-09-01T11:56:46;29.20;30.20
4103;DHT22;2065;49.790;9.620;2022-09-01T11:59:13;29.40;29.20
4103;DHT22;2065;49.790;9.620;2022-09-01T12:01:40;29.50;29.40
4103;DHT22;2065;49.790;9.620;2022-09-01T12:04:19;29.40;29.60
4103;DHT22;2065;49.790;9.620;2022-09-01T12:06:52;29.30;29.50
4103;DHT22;2065;49.790;9.620;2022-09-01T12:09:31;29.50;29.40
4103;DHT22;2065;49.790;9.620;2022-09-01T12:11:58;29.60;28.80
4103;DHT22;2065;49.790;9.620;2022-09-01T12:14:25;29.80;28.70
4103;DHT22;2065;49.790;9.620;2022-09-01T12:16:58;30.20;28.70
4103;DHT22;2065;49.790;9.620;2022-09-01T12:19:28;30.50;28.00
4103;DHT22;2065;49.790;9.620;2022-09-01T12:21:59;30.90;27.20
4103;DHT22;2065;49.790;9.620;2022-09-01T12:24:32;30.70;26.80
4103;DHT22;2065;49.790;9.620;2022-09-01T12:27:00;29.80;28.30
4103;DHT22;2065;49.790;9.620;2022-09-01T12:29:28;29.80;28.80
4103;DHT22;2065;49.790;9.620;2022-09-01T12:31:56;30.30;28.50
4103;DHT22;2065;49.790;9.620;2022-09-01T12:34:26;30.70;27.60
4103;DHT22;2065;49.790;9.620;2022-09-01T12:37:06;30.80;26.60
4103;DHT22;2065;49.790;9.620;2022-09-01T12:39:36;30.70;26.80
4103;DHT22;2065;49.790;9.620;2022-09-01T12:42:07;30.80;26.70
4103;DHT22;2065;49.790;9.620;2022-09-01T12:44:43;30.60;26.70
4103;DHT22;2065;49.790;9.620;2022-09-01T12:47:17;30.70;26.90
4103;DHT22;2065;49.790;9.620;2022-09-01T12:50:01;30.50;27.00
4103;DHT22;2065;49.790;9.620;2022-09-01T12:52:28;30.10;27.50
4103;DHT22;2065;49.790;9.620;2022-09-01T12:55:13;30.00;28.20
4103;DHT22;2065;49.790;9.620;2022-09-01T12:57:47;30.20;28.40
4103;DHT22;2065;49.790;9.620;2022-09-01T13:00:18;30.40;28.20
4103;DHT22;2065;49.790;9.620;2022-09-01T13:02:47;30.50;27.30
4103;DHT22;2065;49.790;9.620;2022-09-01T13:05:27;30.70;26.60
4103;DHT22;2065;49.790;9.620;2022-09-01T13:07:56;30.40;26.50
4103;DHT22;2065;49.790;9.620;2022-09-01T13:10:27;30.20;26.90
4103;DHT22;2065;49.790;9.620;2022-09-01T13:12:56;30.20;27.60
4103;DHT22;2065;49.790;9.620;2022-09-01T13:15:24;29.90;27.50
4103;DHT22;2065;49.790;9.620;2022-09-01T13:17:51;29.90;27.70
4103;DHT22;2065;49.790;9.620;2022-09-01T13:20:18;29.60;27.50
4103;DHT22;2065;49.790;9.620;2022-09-01T13:22:45;29.70;28.20
4103;DHT22;2065;49.790;9.620;2022-09-01T13:25:14;29.80;28.20
4103;DHT22;2065;49.790;9.620;2022-09-01T13:27:44;29.90;28.10
4103;DHT22;2065;49.790;9.620;2022-09-01T13:30:13;30.00;28.30
4103;DHT22;2065;49.790;9.620;2022-09-01T13:32:41;30.00;27.60
4103;DHT22;2065;49.790;9.620;2022-09-01T13:35:10;29.90;27.60
4103;DHT22;2065;49.790;9.620;2022-09-01T13:37:37;29.90;28.00
4103;DHT22;2065;49.790;9.620;2022-09-01T13:40:05;29.80;28.10
4103;DHT22;2065;49.790;9.620;2022-09-01T13:42:33;29.60;27.50
4103;DHT22;2065;49.790;9.620;2022-09-01T13:45:01;29.50;27.90
4103;DHT22;2065;49.790;9.620;2022-09-01T13:47:28;29.50;28.50
4103;DHT22;2065;49.790;9.620;2022-09-01T13:49:55;29.80;28.30
4103;DHT22;2065;49.790;9.620;2022-09-01T13:52:22;29.90;27.50
4103;DHT22;2065;49.790;9.620;2022-09-01T13:54:49;30.00;28.10
4103;DHT22;2065;49.790;9.620;2022-09-01T13:57:16;30.10;27.30
4103;DHT22;2065;49.790;9.620;2022-09-01T13:59:43;30.00;27.10
4103;DHT22;2065;49.790;9.620;2022-09-01T14:02:11;30.10;26.90
4103;DHT22;2065;49.790;9.620;2022-09-01T14:04:38;30.10;27.20
4103;DHT22;2065;49.790;9.620;2022-09-01T14:07:06;30.10;27.30
4103;DHT22;2065;49.790;9.620;2022-09-01T14:09:33;30.00;27.90
4103;DHT22;2065;49.790;9.620;2022-09-01T14:12:00;30.10;27.20
4103;DHT22;2065;49.790;9.620;2022-09-01T14:14:27;30.00;27.10
4103;DHT22;2065;49.790;9.620;2022-09-01T14:16:54;30.00;27.40
4103;DHT22;2065;49.790;9.620;2022-09-01T14:19:23;29.80;27.20
4103;DHT22;2065;49.790;9.620;2022-09-01T14:21:50;29.80;27.10
4103;DHT22;2065;49.790;9.620;2022-09-01T14:24:17;29.50;27.50
4103;DHT22;2065;49.790;9.620;2022-09-01T14:26:45;29.40;27.60
4103;DHT22;2065;49.790;9.620;2022-09-01T14:29:12;29.50;28.10
4103;DHT22;2065;49.790;9.620;2022-09-01T14:31:39;29.80;28.20
4103;DHT22;2065;49.790;9.620;2022-09-01T14:34:08;29.90;27.70
4103;DHT22;2065;49.790;9.620;2022-09-01T14:36:37;30.30;27.40
4103;DHT22;2065;49.790;9.620;2022-09-01T14:39:05;30.30;27.10
4103;DHT22;2065;49.790;9.620;2022-09-01T14:41:32;30.50;27.60
4103;DHT22;2065;49.790;9.620;2022-09-01T14:43:59;30.60;27.30
4103;DHT22;2065;49.790;9.620;2022-09-01T14:46:27;30.70;26.60
4103;DHT22;2065;49.790;9.620;2022-09-01T14:48:55;30.90;26.50
4103;DHT22;2065;49.790;9.620;2022-09-01T14:51:24;30.90;26.10
4103;DHT22;2065;49.790;9.620;2022-09-01T14:53:54;30.70;26.20
4103;DHT22;2065;49.790;9.620;2022-09-01T14:56:21;30.60;26.20
4103;DHT22;2065;49.790;9.620;2022-09-01T14:58:49;30.40;26.50
4103;DHT22;2065;49.790;9.620;2022-09-01T15:01:19;30.50;27.00
4103;DHT22;2065;49.790;9.620;2022-09-01T15:03:48;30.80;26.40
4103;DHT22;2065;49.790;9.620;2022-09-01T15:06:17;31.00;27.10
4103;DHT22;2065;49.790;9.620;2022-09-01T15:08:45;31.20;26.50
4103;DHT22;2065;49.790;9.620;2022-09-01T15:11:17;31.30;26.20
4103;DHT22;2065;49.790;9.620;2022-09-01T15:13:44;31.00;26.40
4103;DHT22;2065;49.790;9.620;2022-09-01T15:16:14;30.80;26.60
4103;DHT22;2065;49.790;9.620;2022-09-01T15:18:41;30.50;26.80
4103;DHT22;2065;49.790;9.620;2022-09-01T15:21:17;30.40;26.80
4103;DHT22;2065;49.790;9.620;2022-09-01T15:23:44;30.40;27.10
4103;DHT22;2065;49.790;9.620;2022-09-01T15:26:14;30.40;26.80
4103;DHT22;2065;49.790;9.620;2022-09-01T15:28:42;30.40;26.80
4103;DHT22;2065;49.790;9.620;2022-09-01T15:31:10;30.70;26.50
4103;DHT22;2065;49.790;9.620;2022-09-01T15:33:37;30.80;26.70
4103;DHT22;2065;49.790;9.620;2022-09-01T15:36:05;30.80;26.00
4103;DHT22;2065;49.790;9.620;2022-09-01T15:38:32;30.60;26.30
4103;DHT22;2065;49.790;9.620;2022-09-01T15:40:59;30.20;26.70
4103;DHT22;2065;49.790;9.620;2022-09-01T15:43:27;30.30;27.20
4103;DHT22;2065;49.790;9.620;2022-09-01T15:45:55;30.60;27.20
4103;DHT22;2065;49.790;9.620;2022-09-01T15:48:24;30.80;26.90
4103;DHT22;2065;49.790;9.620;2022-09-01T15:50:51;31.00;26.30
4103;DHT22;2065;49.790;9.620;2022-09-01T15:53:19;30.90;26.20
4103;DHT22;2065;49.790;9.620;2022-09-01T15:55:47;30.80;26.20
4103;DHT22;2065;49.790;9.620;2022-09-01T15:58:16;30.70;26.50
4103;DHT22;2065;49.790;9.620;2022-09-01T16:00:45;30.70;26.50
4103;DHT22;2065;49.790;9.620;2022-09-01T16:03:13;30.90;26.10
4103;DHT22;2065;49.790;9.620;2022-09-01T16:05:41;30.70;25.90
4103;DHT22;2065;49.790;9.620;2022-09-01T16:08:09;30.50;26.20
4103;DHT22;2065;49.790;9.620;2022-09-01T16:10:38;30.60;26.50
4103;DHT22;2065;49.790;9.620;2022-09-01T16:13:07;30.50;26.90
4103;DHT22;2065;49.790;9.620;2022-09-01T16:15:41;30.40;26.50
4103;DHT22;2065;49.790;9.620;2022-09-01T16:18:22;30.40;26.70
4103;DHT22;2065;49.790;9.620;2022-09-01T16:20:58;30.10;27.30
4103;DHT22;2065;49.790;9.620;2022-09-01T16:23:33;30.30;27.10
4103;DHT22;2065;49.790;9.620;2022-09-01T16:26:04;30.20;26.80
4103;DHT22;2065;49.790;9.620;2022-09-01T16:28:34;29.80;27.00
4103;DHT22;2065;49.790;9.620;2022-09-01T16:31:04;29.60;27.50
4103;DHT22;2065;49.790;9.620;2022-09-01T16:33:35;29.60;27.60
4103;DHT22;2065;49.790;9.620;2022-09-01T16:36:08;29.60;27.50
4103;DHT22;2065;49.790;9.620;2022-09-01T16:38:46;29.70;27.50